sensor_id;sensor_type;location;lat;lon;timestamp;P1;durP1;ratioP1;P2;durP2;ratioP2
48006;SDS011;33771;48.180;11.400;2023-07-13T00:01:26;5.82;;;3.22;;
48006;SDS011;33771;48.180;11.400;2023-07-13T00:03:52;5.40;;;3.58;;
48006;SDS011;33771;48.180;11.400;2023-07-13T00:06:18;4.82;;;3.42;;
48006;SDS011;33771;48.180;11.400;2023-07-13T00:08:45;5.18;;;3.55;;
48006;SDS011;33771;48.180;11.400;2023-07-13T00:11:12;10.20;;;3.88;;
48006;SDS011;33771;48.180;11.400;2023-07-13T00:13:38;7.95;;;3.85;;
48006;SDS011;33771;48.180;11.400;2023-07-13T00:16:04;6.45;;;3.65;;
48006;SDS011;33771;48.180;11.400;2023-07-13T00:18:30;5.47;;;3.95;;
48006;SDS011;33771;48.180;11.400;2023-07-13T00:20:56;7.47;;;3.42;;
48006;SDS011;33771;48.180;11.400;2023-07-13T00:23:29;6.38;;;3.50;;
48006;SDS011;33771;48.180;11.400;2023-07-13T00:25:58;7.53;;;3.70;;
48006;SDS011;33771;48.180;11.400;2023-07-13T00:28:25;13.50;;;5.15;;
48006;SDS011;33771;48.180;11.400;2023-07-13T00:30:50;6.88;;;4.25;;
48006;SDS011;33771;48.180;11.400;2023-07-13T00:33:16;7.28;;;3.72;;
48006;SDS011;33771;48.180;11.400;2023-07-13T00:35:41;7.70;;;3.95;;
48006;SDS011;33771;48.180;11.400;2023-07-13T00:38:08;7.65;;;4.30;;
48006;SDS011;33771;48.180;11.400;2023-07-13T00:40:35;20.40;;;4.85;;
48006;SDS011;33771;48.180;11.400;2023-07-13T00:43:01;7.97;;;4.28;;
48006;SDS011;33771;48.180;11.400;2023-07-13T00:47:53;5.97;;;3.70;;
48006;SDS011;33771;48.180;11.400;2023-07-13T00:50:20;7.22;;;3.65;;
48006;SDS011;33771;48.180;11.400;2023-07-13T00:52:48;7.45;;;3.40;;
48006;SDS011;33771;48.180;11.400;2023-07-13T00:55:18;9.95;;;3.95;;
48006;SDS011;33771;48.180;11.400;2023-07-13T00:57:45;6.22;;;3.80;;
48006;SDS011;33771;48.180;11.400;2023-07-13T01:00:11;5.43;;;3.67;;
48006;SDS011;33771;48.180;11.400;2023-07-13T01:02:38;7.55;;;3.67;;
48006;SDS011;33771;48.180;11.400;2023-07-13T01:05:15;5.35;;;3.50;;
48006;SDS011;33771;48.180;11.400;2023-07-13T01:07:42;7.97;;;3.50;;
48006;SDS011;33771;48.180;11.400;2023-07-13T01:10:09;7.03;;;3.80;;
48006;SDS011;33771;48.180;11.400;2023-07-13T01:12:38;9.98;;;3.60;;
48006;SDS011;33771;48.180;11.400;2023-07-13T01:15:05;8.65;;;3.33;;
48006;SDS011;33771;48.180;11.400;2023-07-13T01:17:51;7.03;;;3.70;;
48006;SDS011;33771;48.180;11.400;2023-07-13T01:20:17;6.15;;;3.35;;
48006;SDS011;33771;48.180;11.400;2023-07-13T01:22:42;12.00;;;4.82;;
48006;SDS011;33771;48.180;11.400;2023-07-13T01:25:08;7.75;;;3.35;;
48006;SDS011;33771;48.180;11.400;2023-07-13T01:27:34;9.13;;;3.70;;
48006;SDS011;33771;48.180;11.400;2023-07-13T01:30:00;9.05;;;3.70;;
48006;SDS011;33771;48.180;11.400;2023-07-13T01:32:29;16.58;;;3.75;;
48006;SDS011;33771;48.180;11.400;2023-07-13T01:34:56;7.28;;;3.50;;
48006;SDS011;33771;48.180;11.400;2023-07-13T01:37:22;5.32;;;4.32;;
48006;SDS011;33771;48.180;11.400;2023-07-13T01:39:49;9.73;;;4.22;;
48006;SDS011;33771;48.180;11.400;2023-07-13T01:42:15;7.13;;;3.88;;
48006;SDS011;33771;48.180;11.400;2023-07-13T01:44:40;8.57;;;4.25;;
48006;SDS011;33771;48.180;11.400;2023-07-13T01:47:06;4.50;;;3.53;;
48006;SDS011;33771;48.180;11.400;2023-07-13T01:49:32;8.10;;;3.90;;
48006;SDS011;33771;48.180;11.400;2023-07-13T01:51:57;9.40;;;4.78;;
48006;SDS011;33771;48.180;11.400;2023-07-13T01:54:23;7.57;;;3.88;;
48006;SDS011;33771;48.180;11.400;2023-07-13T01:56:48;8.57;;;4.18;;
48006;SDS011;33771;48.180;11.400;2023-07-13T01:59:14;6.47;;;4.22;;
48006;SDS011;33771;48.180;11.400;2023-07-13T02:01:39;6.07;;;3.80;;
48006;SDS011;33771;48.180;11.400;2023-07-13T02:04:05;4.80;;;3.72;;
48006;SDS011;33771;48.180;11.400;2023-07-13T02:06:31;8.38;;;4.30;;
48006;SDS011;33771;48.180;11.400;2023-07-13T02:08:57;8.15;;;4.15;;
48006;SDS011;33771;48.180;11.400;2023-07-13T02:11:23;6.30;;;3.97;;
48006;SDS011;33771;48.180;11.400;2023-07-13T02:13:49;9.05;;;4.05;;
48006;SDS011;33771;48.180;11.400;2023-07-13T02:16:15;7.40;;;4.40;;
48006;SDS011;33771;48.180;11.400;2023-07-13T02:18:41;9.90;;;4.13;;
48006;SDS011;33771;48.180;11.400;2023-07-13T02:21:06;5.95;;;4.00;;
48006;SDS011;33771;48.180;11.400;2023-07-13T02:23:32;9.98;;;4.20;;
48006;SDS011;33771;48.180;11.400;2023-07-13T02:25:58;7.78;;;4.13;;
48006;SDS011;33771;48.180;11.400;2023-07-13T02:28:25;9.98;;;4.50;;
48006;SDS011;33771;48.180;11.400;2023-07-13T02:30:51;8.05;;;4.63;;
48006;SDS011;33771;48.180;11.400;2023-07-13T02:33:16;8.85;;;4.30;;
48006;SDS011;33771;48.180;11.400;2023-07-13T02:35:42;8.93;;;4.72;;
48006;SDS011;33771;48.180;11.400;2023-07-13T02:38:07;9.00;;;4.47;;
48006;SDS011;33771;48.180;11.400;2023-07-13T02:40:33;6.93;;;4.43;;
48006;SDS011;33771;48.180;11.400;2023-07-13T02:43:00;7.18;;;4.70;;
48006;SDS011;33771;48.180;11.400;2023-07-13T02:45:26;7.85;;;4.75;;
48006;SDS011;33771;48.180;11.400;2023-07-13T02:47:52;8.00;;;5.32;;
48006;SDS011;33771;48.180;11.400;2023-07-13T02:50:17;6.28;;;4.85;;
48006;SDS011;33771;48.180;11.400;2023-07-13T02:52:43;9.10;;;5.05;;
48006;SDS011;33771;48.180;11.400;2023-07-13T02:55:09;9.18;;;4.70;;
48006;SDS011;33771;48.180;11.400;2023-07-13T02:57:34;7.88;;;4.70;;
48006;SDS011;33771;48.180;11.400;2023-07-13T03:00:00;8.20;;;4.60;;
48006;SDS011;33771;48.180;11.400;2023-07-13T03:02:30;9.48;;;4.70;;
48006;SDS011;33771;48.180;11.400;2023-07-13T03:04:57;8.32;;;4.88;;
48006;SDS011;33771;48.180;11.400;2023-07-13T03:07:22;9.52;;;4.70;;
48006;SDS011;33771;48.180;11.400;2023-07-13T03:09:48;7.95;;;4.10;;
48006;SDS011;33771;48.180;11.400;2023-07-13T03:12:13;9.30;;;4.82;;
48006;SDS011;33771;48.180;11.400;2023-07-13T03:14:39;6.90;;;4.30;;
48006;SDS011;33771;48.180;11.400;2023-07-13T03:17:04;9.80;;;4.43;;
48006;SDS011;33771;48.180;11.400;2023-07-13T03:19:30;7.65;;;4.10;;
48006;SDS011;33771;48.180;11.400;2023-07-13T03:21:56;7.10;;;3.83;;
48006;SDS011;33771;48.180;11.400;2023-07-13T03:24:21;7.50;;;3.60;;
48006;SDS011;33771;48.180;11.400;2023-07-13T03:26:48;5.45;;;3.58;;
48006;SDS011;33771;48.180;11.400;2023-07-13T03:29:14;7.88;;;4.25;;
48006;SDS011;33771;48.180;11.400;2023-07-13T03:31:39;7.95;;;3.92;;
48006;SDS011;33771;48.180;11.400;2023-07-13T03:34:05;6.35;;;3.28;;
48006;SDS011;33771;48.180;11.400;2023-07-13T03:36:31;5.88;;;3.78;;
48006;SDS011;33771;48.180;11.400;2023-07-13T03:38:58;6.90;;;3.83;;
48006;SDS011;33771;48.180;11.400;2023-07-13T03:41:26;8.77;;;4.70;;
48006;SDS011;33771;48.180;11.400;2023-07-13T03:43:51;7.88;;;4.80;;
48006;SDS011;33771;48.180;11.400;2023-07-13T03:46:17;6.28;;;4.18;;
48006;SDS011;33771;48.180;11.400;2023-07-13T03:48:44;7.40;;;4.15;;
48006;SDS011;33771;48.180;11.400;2023-07-13T03:51:11;6.20;;;3.53;;
48006;SDS011;33771;48.180;11.400;2023-07-13T03:53:40;6.70;;;3.72;;
48006;SDS011;33771;48.180;11.400;2023-07-13T03:56:07;9.50;;;4.05;;
48006;SDS011;33771;48.180;11.400;2023-07-13T03:58:42;11.57;;;4.57;;
48006;SDS011;33771;48.180;11.400;2023-07-13T04:01:09;8.82;;;4.82;;
48006;SDS011;33771;48.180;11.400;2023-07-13T04:03:37;7.78;;;4.55;;
48006;SDS011;33771;48.180;11.400;2023-07-13T04:06:04;6.43;;;4.30;;
48006;SDS011;33771;48.180;11.400;2023-07-13T04:08:31;7.40;;;4.72;;
48006;SDS011;33771;48.180;11.400;2023-07-13T04:10:58;8.32;;;4.50;;
48006;SDS011;33771;48.180;11.400;2023-07-13T04:13:24;7.55;;;3.58;;
48006;SDS011;33771;48.180;11.400;2023-07-13T04:15:51;5.55;;;4.03;;
48006;SDS011;33771;48.180;11.400;2023-07-13T04:18:17;6.82;;;3.63;;
48006;SDS011;33771;48.180;11.400;2023-07-13T04:20:43;6.78;;;4.22;;
48006;SDS011;33771;48.180;11.400;2023-07-13T04:23:08;7.20;;;3.80;;
48006;SDS011;33771;48.180;11.400;2023-07-13T04:25:34;7.97;;;4.13;;
48006;SDS011;33771;48.180;11.400;2023-07-13T04:28:00;6.30;;;3.67;;
48006;SDS011;33771;48.180;11.400;2023-07-13T04:30:25;8.88;;;4.25;;
48006;SDS011;33771;48.180;11.400;2023-07-13T04:32:51;4.70;;;3.65;;
48006;SDS011;33771;48.180;11.400;2023-07-13T04:35:18;7.13;;;3.92;;
48006;SDS011;33771;48.180;11.400;2023-07-13T04:37:45;6.60;;;4.07;;
48006;SDS011;33771;48.180;11.400;2023-07-13T04:40:13;6.70;;;3.95;;
48006;SDS011;33771;48.180;11.400;2023-07-13T04:42:39;6.90;;;3.80;;
48006;SDS011;33771;48.180;11.400;2023-07-13T04:45:05;9.27;;;3.42;;
48006;SDS011;33771;48.180;11.400;2023-07-13T04:47:32;7.10;;;3.33;;
48006;SDS011;33771;48.180;11.400;2023-07-13T04:49:57;6.30;;;3.60;;
48006;SDS011;33771;48.180;11.400;2023-07-13T04:52:23;6.60;;;3.40;;
48006;SDS011;33771;48.180;11.400;2023-07-13T04:54:49;5.43;;;3.28;;
48006;SDS011;33771;48.180;11.400;2023-07-13T04:57:15;5.63;;;3.03;;
48006;SDS011;33771;48.180;11.400;2023-07-13T04:59:40;6.70;;;3.30;;
48006;SDS011;33771;48.180;11.400;2023-07-13T05:02:06;5.95;;;3.38;;
48006;SDS011;33771;48.180;11.400;2023-07-13T05:04:32;4.22;;;3.13;;
48006;SDS011;33771;48.180;11.400;2023-07-13T05:06:58;5.93;;;3.10;;
48006;SDS011;33771;48.180;11.400;2023-07-13T05:09:24;6.43;;;3.00;;
48006;SDS011;33771;48.180;11.400;2023-07-13T05:11:50;5.53;;;3.10;;
48006;SDS011;33771;48.180;11.400;2023-07-13T05:14:15;6.35;;;3.38;;
48006;SDS011;33771;48.180;11.400;2023-07-13T05:16:41;5.40;;;3.70;;
48006;SDS011;33771;48.180;11.400;2023-07-13T05:19:07;5.00;;;2.95;;
48006;SDS011;33771;48.180;11.400;2023-07-13T05:21:33;5.10;;;3.20;;
48006;SDS011;33771;48.180;11.400;2023-07-13T05:23:59;8.23;;;3.15;;
48006;SDS011;33771;48.180;11.400;2023-07-13T05:26:25;5.85;;;3.03;;
48006;SDS011;33771;48.180;11.400;2023-07-13T05:28:50;6.20;;;3.25;;
48006;SDS011;33771;48.180;11.400;2023-07-13T05:31:16;4.57;;;3.00;;
48006;SDS011;33771;48.180;11.400;2023-07-13T05:33:41;5.93;;;3.00;;
48006;SDS011;33771;48.180;11.400;2023-07-13T05:36:07;4.68;;;3.25;;
48006;SDS011;33771;48.180;11.400;2023-07-13T05:38:33;5.13;;;3.20;;
48006;SDS011;33771;48.180;11.400;2023-07-13T05:40:58;6.63;;;3.33;;
48006;SDS011;33771;48.180;11.400;2023-07-13T05:43:24;5.38;;;2.80;;
48006;SDS011;33771;48.180;11.400;2023-07-13T05:45:52;6.65;;;3.25;;
48006;SDS011;33771;48.180;11.400;2023-07-13T05:48:18;5.43;;;2.80;;
48006;SDS011;33771;48.180;11.400;2023-07-13T05:50:44;7.93;;;3.70;;
48006;SDS011;33771;48.180;11.400;2023-07-13T05:53:09;7.40;;;3.35;;
48006;SDS011;33771;48.180;11.400;2023-07-13T05:55:40;3.72;;;2.83;;
48006;SDS011;33771;48.180;11.400;2023-07-13T05:58:12;4.05;;;2.80;;
48006;SDS011;33771;48.180;11.400;2023-07-13T06:00:38;8.98;;;3.15;;
48006;SDS011;33771;48.180;11.400;2023-07-13T06:03:03;5.30;;;2.90;;
48006;SDS011;33771;48.180;11.400;2023-07-13T06:05:29;5.00;;;3.25;;
48006;SDS011;33771;48.180;11.400;2023-07-13T06:07:55;4.03;;;3.00;;
48006;SDS011;33771;48.180;11.400;2023-07-13T06:10:20;6.13;;;3.00;;
48006;SDS011;33771;48.180;11.400;2023-07-13T06:12:46;4.72;;;2.50;;
48006;SDS011;33771;48.180;11.400;2023-07-13T06:15:12;6.82;;;3.15;;
48006;SDS011;33771;48.180;11.400;2023-07-13T06:17:37;7.38;;;2.80;;
48006;SDS011;33771;48.180;11.400;2023-07-13T06:20:03;4.72;;;2.80;;
48006;SDS011;33771;48.180;11.400;2023-07-13T06:22:29;10.88;;;2.60;;
48006;SDS011;33771;48.180;11.400;2023-07-13T06:24:54;4.47;;;2.20;;
48006;SDS011;33771;48.180;11.400;2023-07-13T06:27:20;7.75;;;2.90;;
48006;SDS011;33771;48.180;11.400;2023-07-13T06:29:45;6.18;;;2.47;;
48006;SDS011;33771;48.180;11.400;2023-07-13T06:32:11;10.57;;;2.80;;
48006;SDS011;33771;48.180;11.400;2023-07-13T06:34:36;7.60;;;2.78;;
48006;SDS011;33771;48.180;11.400;2023-07-13T06:37:02;6.75;;;2.90;;
48006;SDS011;33771;48.180;11.400;2023-07-13T06:39:28;8.15;;;3.00;;
48006;SDS011;33771;48.180;11.400;2023-07-13T06:41:53;4.38;;;2.70;;
48006;SDS011;33771;48.180;11.400;2023-07-13T06:44:19;4.25;;;2.50;;
48006;SDS011;33771;48.180;11.400;2023-07-13T06:46:44;6.63;;;2.58;;
48006;SDS011;33771;48.180;11.400;2023-07-13T06:49:10;4.53;;;2.33;;
48006;SDS011;33771;48.180;11.400;2023-07-13T06:51:35;5.15;;;2.60;;
48006;SDS011;33771;48.180;11.400;2023-07-13T06:54:01;6.93;;;2.83;;
48006;SDS011;33771;48.180;11.400;2023-07-13T06:56:27;6.85;;;2.70;;
48006;SDS011;33771;48.180;11.400;2023-07-13T06:58:52;5.97;;;3.28;;
48006;SDS011;33771;48.180;11.400;2023-07-13T07:01:18;5.20;;;2.38;;
48006;SDS011;33771;48.180;11.400;2023-07-13T07:03:43;3.67;;;2.30;;
48006;SDS011;33771;48.180;11.400;2023-07-13T07:06:15;4.65;;;2.95;;
48006;SDS011;33771;48.180;11.400;2023-07-13T07:08:44;9.15;;;2.63;;
48006;SDS011;33771;48.180;11.400;2023-07-13T07:11:11;9.93;;;3.28;;
48006;SDS011;33771;48.180;11.400;2023-07-13T07:13:38;6.93;;;2.75;;
48006;SDS011;33771;48.180;11.400;2023-07-13T07:16:04;5.78;;;2.95;;
48006;SDS011;33771;48.180;11.400;2023-07-13T07:18:29;5.63;;;2.50;;
48006;SDS011;33771;48.180;11.400;2023-07-13T07:20:55;8.38;;;2.63;;
48006;SDS011;33771;48.180;11.400;2023-07-13T07:23:20;6.30;;;2.60;;
48006;SDS011;33771;48.180;11.400;2023-07-13T07:25:47;7.88;;;3.53;;
48006;SDS011;33771;48.180;11.400;2023-07-13T07:28:14;5.10;;;2.38;;
48006;SDS011;33771;48.180;11.400;2023-07-13T07:30:43;7.72;;;2.60;;
48006;SDS011;33771;48.180;11.400;2023-07-13T07:33:09;7.47;;;2.60;;
48006;SDS011;33771;48.180;11.400;2023-07-13T07:35:34;7.45;;;2.78;;
48006;SDS011;33771;48.180;11.400;2023-07-13T07:38:00;5.80;;;2.85;;
48006;SDS011;33771;48.180;11.400;2023-07-13T07:40:25;9.10;;;3.10;;
48006;SDS011;33771;48.180;11.400;2023-07-13T07:42:51;6.28;;;2.97;;
48006;SDS011;33771;48.180;11.400;2023-07-13T07:45:17;7.45;;;3.20;;
48006;SDS011;33771;48.180;11.400;2023-07-13T07:47:43;6.25;;;2.60;;
48006;SDS011;33771;48.180;11.400;2023-07-13T07:50:08;6.68;;;2.45;;
48006;SDS011;33771;48.180;11.400;2023-07-13T07:52:34;5.32;;;2.10;;
48006;SDS011;33771;48.180;11.400;2023-07-13T07:55:00;5.38;;;2.25;;
48006;SDS011;33771;48.180;11.400;2023-07-13T07:57:25;7.28;;;2.60;;
48006;SDS011;33771;48.180;11.400;2023-07-13T07:59:51;5.22;;;2.22;;
48006;SDS011;33771;48.180;11.400;2023-07-13T08:02:16;5.50;;;2.40;;
48006;SDS011;33771;48.180;11.400;2023-07-13T08:04:42;7.90;;;2.55;;
48006;SDS011;33771;48.180;11.400;2023-07-13T08:07:08;4.72;;;2.03;;
48006;SDS011;33771;48.180;11.400;2023-07-13T08:09:34;5.43;;;2.20;;
48006;SDS011;33771;48.180;11.400;2023-07-13T08:11:59;7.85;;;2.10;;
48006;SDS011;33771;48.180;11.400;2023-07-13T08:14:25;6.00;;;1.85;;
48006;SDS011;33771;48.180;11.400;2023-07-13T08:16:51;4.65;;;2.13;;
48006;SDS011;33771;48.180;11.400;2023-07-13T08:19:16;5.97;;;1.83;;
48006;SDS011;33771;48.180;11.400;2023-07-13T08:21:42;5.38;;;1.70;;
48006;SDS011;33771;48.180;11.400;2023-07-13T08:24:08;3.88;;;1.90;;
48006;SDS011;33771;48.180;11.400;2023-07-13T08:26:36;7.10;;;2.38;;
48006;SDS011;33771;48.180;11.400;2023-07-13T08:29:02;4.95;;;1.80;;
48006;SDS011;33771;48.180;11.400;2023-07-13T08:31:28;8.27;;;2.03;;
48006;SDS011;33771;48.180;11.400;2023-07-13T08:33:53;4.70;;;1.73;;
48006;SDS011;33771;48.180;11.400;2023-07-13T08:36:19;3.47;;;1.63;;
48006;SDS011;33771;48.180;11.400;2023-07-13T08:38:44;9.35;;;1.70;;
48006;SDS011;33771;48.180;11.400;2023-07-13T08:41:14;5.13;;;1.73;;
48006;SDS011;33771;48.180;11.400;2023-07-13T08:43:42;4.97;;;2.00;;
48006;SDS011;33771;48.180;11.400;2023-07-13T08:46:23;9.20;;;1.85;;
48006;SDS011;33771;48.180;11.400;2023-07-13T08:48:57;5.05;;;1.60;;
48006;SDS011;33771;48.180;11.400;2023-07-13T08:52:10;3.13;;;1.58;;
48006;SDS011;33771;48.180;11.400;2023-07-13T08:54:32;5.28;;;1.80;;
48006;SDS011;33771;48.180;11.400;2023-07-13T08:57:10;5.50;;;2.08;;
48006;SDS011;33771;48.180;11.400;2023-07-13T08:59:42;5.65;;;1.75;;
48006;SDS011;33771;48.180;11.400;2023-07-13T09:04:59;4.50;;;1.70;;
48006;SDS011;33771;48.180;11.400;2023-07-13T09:07:41;4.90;;;1.83;;
48006;SDS011;33771;48.180;11.400;2023-07-13T09:16:10;6.55;;;2.17;;
48006;SDS011;33771;48.180;11.400;2023-07-13T09:18:38;3.65;;;1.90;;
48006;SDS011;33771;48.180;11.400;2023-07-13T09:21:18;5.88;;;1.80;;
48006;SDS011;33771;48.180;11.400;2023-07-13T09:23:48;4.13;;;1.83;;
48006;SDS011;33771;48.180;11.400;2023-07-13T09:26:19;4.45;;;1.80;;
48006;SDS011;33771;48.180;11.400;2023-07-13T09:28:51;4.72;;;2.05;;
48006;SDS011;33771;48.180;11.400;2023-07-13T09:31:23;5.50;;;1.80;;
48006;SDS011;33771;48.180;11.400;2023-07-13T09:34:01;3.53;;;1.65;;
48006;SDS011;33771;48.180;11.400;2023-07-13T09:36:28;7.75;;;1.83;;
48006;SDS011;33771;48.180;11.400;2023-07-13T09:39:40;5.30;;;1.85;;
48006;SDS011;33771;48.180;11.400;2023-07-13T09:44:39;4.38;;;2.03;;
48006;SDS011;33771;48.180;11.400;2023-07-13T09:50:01;5.05;;;1.90;;
48006;SDS011;33771;48.180;11.400;2023-07-13T09:52:40;8.77;;;2.00;;
48006;SDS011;33771;48.180;11.400;2023-07-13T09:55:22;4.33;;;1.77;;
48006;SDS011;33771;48.180;11.400;2023-07-13T09:57:48;5.85;;;1.90;;
48006;SDS011;33771;48.180;11.400;2023-07-13T10:00:22;5.15;;;1.95;;
48006;SDS011;33771;48.180;11.400;2023-07-13T10:02:58;5.80;;;1.85;;
48006;SDS011;33771;48.180;11.400;2023-07-13T10:05:25;7.18;;;1.77;;
48006;SDS011;33771;48.180;11.400;2023-07-13T10:07:51;5.55;;;1.80;;
48006;SDS011;33771;48.180;11.400;2023-07-13T10:10:18;6.93;;;2.10;;
48006;SDS011;33771;48.180;11.400;2023-07-13T10:12:46;4.00;;;1.85;;
48006;SDS011;33771;48.180;11.400;2023-07-13T10:15:22;4.47;;;1.60;;
48006;SDS011;33771;48.180;11.400;2023-07-13T10:17:49;4.90;;;1.70;;
48006;SDS011;33771;48.180;11.400;2023-07-13T10:20:17;3.95;;;1.52;;
48006;SDS011;33771;48.180;11.400;2023-07-13T10:22:50;5.80;;;1.42;;
48006;SDS011;33771;48.180;11.400;2023-07-13T10:25:23;6.10;;;1.80;;
48006;SDS011;33771;48.180;11.400;2023-07-13T10:27:56;5.63;;;1.50;;
48006;SDS011;33771;48.180;11.400;2023-07-13T10:30:28;4.63;;;1.70;;
48006;SDS011;33771;48.180;11.400;2023-07-13T10:32:58;7.05;;;2.03;;
48006;SDS011;33771;48.180;11.400;2023-07-13T10:35:26;6.22;;;1.52;;
48006;SDS011;33771;48.180;11.400;2023-07-13T10:37:56;4.50;;;1.80;;
48006;SDS011;33771;48.180;11.400;2023-07-13T10:40:42;10.38;;;1.60;;
48006;SDS011;33771;48.180;11.400;2023-07-13T10:43:39;7.22;;;1.92;;
48006;SDS011;33771;48.180;11.400;2023-07-13T10:46:10;5.85;;;1.27;;
48006;SDS011;33771;48.180;11.400;2023-07-13T10:48:38;5.15;;;2.10;;
48006;SDS011;33771;48.180;11.400;2023-07-13T10:51:05;4.97;;;1.55;;
48006;SDS011;33771;48.180;11.400;2023-07-13T10:53:35;6.70;;;2.03;;
48006;SDS011;33771;48.180;11.400;2023-07-13T10:56:03;3.63;;;1.75;;
48006;SDS011;33771;48.180;11.400;2023-07-13T10:58:34;5.55;;;1.70;;
48006;SDS011;33771;48.180;11.400;2023-07-13T11:01:15;5.10;;;1.60;;
48006;SDS011;33771;48.180;11.400;2023-07-13T11:03:54;3.60;;;1.50;;
48006;SDS011;33771;48.180;11.400;2023-07-13T11:21:33;8.25;;;1.90;;
48006;SDS011;33771;48.180;11.400;2023-07-13T11:24:15;3.92;;;1.88;;
48006;SDS011;33771;48.180;11.400;2023-07-13T11:31:42;2.80;;;1.40;;
48006;SDS011;33771;48.180;11.400;2023-07-13T11:34:26;4.15;;;1.60;;
48006;SDS011;33771;48.180;11.400;2023-07-13T11:36:55;5.32;;;1.65;;
48006;SDS011;33771;48.180;11.400;2023-07-13T11:39:34;15.40;;;1.75;;
48006;SDS011;33771;48.180;11.400;2023-07-13T11:42:03;3.67;;;1.58;;
48006;SDS011;33771;48.180;11.400;2023-07-13T11:44:33;7.88;;;1.88;;
48006;SDS011;33771;48.180;11.400;2023-07-13T11:47:01;3.47;;;1.42;;
48006;SDS011;33771;48.180;11.400;2023-07-13T11:49:44;4.05;;;1.67;;
48006;SDS011;33771;48.180;11.400;2023-07-13T11:52:17;4.22;;;1.60;;
48006;SDS011;33771;48.180;11.400;2023-07-13T11:54:51;3.75;;;1.42;;
48006;SDS011;33771;48.180;11.400;2023-07-13T12:00:03;3.65;;;1.50;;
48006;SDS011;33771;48.180;11.400;2023-07-13T12:02:37;3.58;;;1.50;;
48006;SDS011;33771;48.180;11.400;2023-07-13T12:05:09;4.80;;;1.70;;
48006;SDS011;33771;48.180;11.400;2023-07-13T12:07:37;4.90;;;1.60;;
48006;SDS011;33771;48.180;11.400;2023-07-13T12:12:53;8.63;;;1.70;;
48006;SDS011;33771;48.180;11.400;2023-07-13T12:15:28;3.67;;;1.50;;
48006;SDS011;33771;48.180;11.400;2023-07-13T12:18:02;5.13;;;2.20;;
48006;SDS011;33771;48.180;11.400;2023-07-13T12:20:30;3.95;;;1.73;;
48006;SDS011;33771;48.180;11.400;2023-07-13T12:23:04;4.78;;;1.40;;
48006;SDS011;33771;48.180;11.400;2023-07-13T12:25:31;5.63;;;1.65;;
48006;SDS011;33771;48.180;11.400;2023-07-13T12:27:57;4.82;;;1.42;;
48006;SDS011;33771;48.180;11.400;2023-07-13T12:30:29;5.45;;;1.45;;
48006;SDS011;33771;48.180;11.400;2023-07-13T12:35:43;7.38;;;2.15;;
48006;SDS011;33771;48.180;11.400;2023-07-13T12:38:15;10.52;;;1.90;;
48006;SDS011;33771;48.180;11.400;2023-07-13T12:40:42;7.70;;;1.70;;
48006;SDS011;33771;48.180;11.400;2023-07-13T12:43:11;3.78;;;1.50;;
48006;SDS011;33771;48.180;11.400;2023-07-13T12:45:38;16.63;;;2.22;;
48006;SDS011;33771;48.180;11.400;2023-07-13T12:48:14;5.43;;;1.50;;
48006;SDS011;33771;48.180;11.400;2023-07-13T12:50:42;7.15;;;1.48;;
48006;SDS011;33771;48.180;11.400;2023-07-13T12:53:16;5.93;;;1.48;;
48006;SDS011;33771;48.180;11.400;2023-07-13T12:55:54;3.47;;;1.65;;
48006;SDS011;33771;48.180;11.400;2023-07-13T13:00:55;5.05;;;1.42;;
48006;SDS011;33771;48.180;11.400;2023-07-13T13:03:32;2.63;;;1.40;;
48006;SDS011;33771;48.180;11.400;2023-07-13T13:08:40;3.22;;;1.30;;
48006;SDS011;33771;48.180;11.400;2023-07-13T13:11:08;6.00;;;1.60;;
48006;SDS011;33771;48.180;11.400;2023-07-13T13:13:34;4.10;;;1.50;;
48006;SDS011;33771;48.180;11.400;2023-07-13T13:18:43;2.60;;;1.50;;
48006;SDS011;33771;48.180;11.400;2023-07-13T13:21:09;4.03;;;1.70;;
48006;SDS011;33771;48.180;11.400;2023-07-13T13:23:35;4.85;;;1.60;;
48006;SDS011;33771;48.180;11.400;2023-07-13T13:26:01;5.53;;;1.85;;
48006;SDS011;33771;48.180;11.400;2023-07-13T13:28:27;3.83;;;1.70;;
48006;SDS011;33771;48.180;11.400;2023-07-13T13:30:52;4.88;;;1.60;;
48006;SDS011;33771;48.180;11.400;2023-07-13T13:33:19;5.22;;;1.52;;
48006;SDS011;33771;48.180;11.400;2023-07-13T13:35:45;8.48;;;1.75;;
48006;SDS011;33771;48.180;11.400;2023-07-13T13:38:15;7.00;;;1.65;;
48006;SDS011;33771;48.180;11.400;2023-07-13T13:40:42;6.90;;;1.73;;
48006;SDS011;33771;48.180;11.400;2023-07-13T13:43:25;8.15;;;1.60;;
48006;SDS011;33771;48.180;11.400;2023-07-13T13:45:52;4.88;;;1.63;;
48006;SDS011;33771;48.180;11.400;2023-07-13T13:48:21;14.68;;;1.80;;
48006;SDS011;33771;48.180;11.400;2023-07-13T13:50:56;5.65;;;1.48;;
48006;SDS011;33771;48.180;11.400;2023-07-13T13:53:22;6.85;;;2.30;;
48006;SDS011;33771;48.180;11.400;2023-07-13T13:55:48;5.75;;;1.92;;
48006;SDS011;33771;48.180;11.400;2023-07-13T13:58:15;4.53;;;1.48;;
48006;SDS011;33771;48.180;11.400;2023-07-13T14:00:41;3.10;;;1.40;;
48006;SDS011;33771;48.180;11.400;2023-07-13T14:03:16;5.85;;;1.50;;
48006;SDS011;33771;48.180;11.400;2023-07-13T14:05:43;4.00;;;1.52;;
48006;SDS011;33771;48.180;11.400;2023-07-13T14:08:12;4.57;;;1.70;;
48006;SDS011;33771;48.180;11.400;2023-07-13T14:10:39;2.47;;;1.75;;
48006;SDS011;33771;48.180;11.400;2023-07-13T14:13:07;4.18;;;1.48;;
48006;SDS011;33771;48.180;11.400;2023-07-13T14:15:46;5.15;;;1.58;;
48006;SDS011;33771;48.180;11.400;2023-07-13T14:18:12;5.00;;;1.60;;
48006;SDS011;33771;48.180;11.400;2023-07-13T14:20:43;3.88;;;1.40;;
48006;SDS011;33771;48.180;11.400;2023-07-13T14:23:09;3.35;;;1.63;;
48006;SDS011;33771;48.180;11.400;2023-07-13T14:25:35;3.25;;;1.70;;
48006;SDS011;33771;48.180;11.400;2023-07-13T14:28:04;4.47;;;1.35;;
48006;SDS011;33771;48.180;11.400;2023-07-13T14:30:49;5.68;;;1.70;;
48006;SDS011;33771;48.180;11.400;2023-07-13T14:33:16;8.48;;;1.70;;
48006;SDS011;33771;48.180;11.400;2023-07-13T14:35:42;16.58;;;1.95;;
48006;SDS011;33771;48.180;11.400;2023-07-13T14:38:11;4.60;;;1.80;;
48006;SDS011;33771;48.180;11.400;2023-07-13T14:40:40;3.22;;;1.60;;
48006;SDS011;33771;48.180;11.400;2023-07-13T14:43:09;7.57;;;1.70;;
48006;SDS011;33771;48.180;11.400;2023-07-13T14:45:39;3.28;;;1.40;;
48006;SDS011;33771;48.180;11.400;2023-07-13T14:48:13;5.18;;;1.80;;
48006;SDS011;33771;48.180;11.400;2023-07-13T14:50:56;5.13;;;1.48;;
48006;SDS011;33771;48.180;11.400;2023-07-13T14:53:24;3.13;;;1.50;;
48006;SDS011;33771;48.180;11.400;2023-07-13T14:55:52;3.58;;;1.60;;
48006;SDS011;33771;48.180;11.400;2023-07-13T14:58:18;4.13;;;1.70;;
48006;SDS011;33771;48.180;11.400;2023-07-13T15:00:43;9.70;;;1.75;;
48006;SDS011;33771;48.180;11.400;2023-07-13T15:03:22;4.90;;;1.50;;
48006;SDS011;33771;48.180;11.400;2023-07-13T15:05:49;6.63;;;1.50;;
48006;SDS011;33771;48.180;11.400;2023-07-13T15:08:16;10.48;;;1.70;;
48006;SDS011;33771;48.180;11.400;2023-07-13T15:10:41;4.40;;;2.00;;
48006;SDS011;33771;48.180;11.400;2023-07-13T15:13:15;3.88;;;1.52;;
48006;SDS011;33771;48.180;11.400;2023-07-13T15:15:43;4.10;;;1.73;;
48006;SDS011;33771;48.180;11.400;2023-07-13T15:18:12;5.32;;;1.42;;
48006;SDS011;33771;48.180;11.400;2023-07-13T15:20:42;6.88;;;1.58;;
48006;SDS011;33771;48.180;11.400;2023-07-13T15:23:10;5.95;;;1.90;;
48006;SDS011;33771;48.180;11.400;2023-07-13T15:25:36;3.70;;;1.50;;
48006;SDS011;33771;48.180;11.400;2023-07-13T15:28:02;4.53;;;1.50;;
48006;SDS011;33771;48.180;11.400;2023-07-13T15:30:33;2.92;;;1.15;;
48006;SDS011;33771;48.180;11.400;2023-07-13T15:33:10;5.07;;;1.60;;